Moby Baby — ICEM — position and weather

sailwx.info

Track history (hours):
 
Tides and Currents Weather Stations Pressure Air Temp Water Temp Dewpoint Dewpoint Depression Visibility Wind Speed Wind Dir Waves Ship Positions

Moby Baby

Last reported at 2016-Jun-28 20:11 UTC. Time now 2016-Jun-28 22:30 UTC.
Position N 42°49' E 010°19'.

; draft 4.5 m.

Type: Ship. MMSI: 247049900.

Date/timePositionNaut miles runAvg speedWind from/ knotsBaromVisibWave heightAir tempDewpointWater temp
2016-Jun-28 20:11N 42°49' E 010°19'0 0.0
2016-Jun-28 19:32N 42°49' E 010°19'1312.8
2016-Jun-28 18:33N 42°56' E 010°33'7 7.1
2016-Jun-28 17:33N 42°53' E 010°25'6 5.7
2016-Jun-28 16:33N 42°49' E 010°19'7 7.1
2016-Jun-28 15:33N 42°53' E 010°27'6 5.6
2016-Jun-28 14:33N 42°56' E 010°33'1312.4
2016-Jun-28 13:33N 42°49' E 010°19'7 6.6
2016-Jun-28 12:33N 42°53' E 010°26'6 2.0
2016-Jun-28 09:33N 42°56' E 010°33'12 5.3
2016-Jun-28 07:12N 42°49' E 010°20'0 0.0
2016-Jun-27 16:32N 42°49' E 010°19'6 6.4
2016-Jun-27 15:33N 42°53' E 010°26'4 3.2
2016-Jun-27 14:19N 42°54' E 010°31'4 2.1
2016-Jun-27 12:33N 42°53' E 010°26'7 0.4
2016-Jun-26 21:20N 42°49' E 010°19'0 0.0
2016-Jun-26 20:33N 42°49' E 010°19'0 0.1
2016-Jun-26 19:33N 42°49' E 010°19'13 8.8
2016-Jun-26 18:08N 42°56' E 010°33'712.3
2016-Jun-26 17:33N 42°53' E 010°25'6 5.6
2016-Jun-26 16:33N 42°49' E 010°19'6 6.3
2016-Jun-26 15:33N 42°53' E 010°26'6 6.4
2016-Jun-26 14:34N 42°56' E 010°33'1212.5
2016-Jun-26 13:33N 42°49' E 010°19'8 7.5
2016-Jun-26 12:34N 42°53' E 010°28'1 0.4
2016-Jun-26 09:13N 42°53' E 010°29'913.3
2016-Jun-26 08:33N 42°49' E 010°19'0 0.1
2016-Jun-26 07:31N 42°49' E 010°19'9 9.0
2016-Jun-26 06:33N 42°54' E 010°29'4 3.9
2016-Jun-26 05:32N 42°56' E 010°33'13 1.8
2016-Jun-25 22:32N 42°49' E 010°19'0 0.0
2016-Jun-25 21:32N 42°49' E 010°19'0 0.0
2016-Jun-25 19:33N 42°49' E 010°19'11 5.2
2016-Jun-25 17:25N 42°54' E 010°33'11 5.5
2016-Jun-25 15:27N 42°48' E 010°20'1213.5
2016-Jun-25 14:33N 42°56' E 010°33'4 3.8
2016-Jun-25 13:33N 42°53' E 010°29'9 8.2
2016-Jun-25 12:28N 42°49' E 010°19'1213.0
2016-Jun-25 11:33N 42°55' E 010°33'1 1.1
2016-Jun-25 10:34N 42°56' E 010°33'1312.7
2016-Jun-25 09:34N 42°49' E 010°19'0 0.1
2016-Jun-25 08:33N 42°49' E 010°19'0 0.2
2016-Jun-25 07:16N 42°49' E 010°20'1013.8
2016-Jun-25 06:34N 42°54' E 010°31'3 3.0
2016-Jun-25 05:33N 42°56' E 010°34'1312.8
2016-Jun-25 04:34N 42°49' E 010°19'0 0.1
2016-Jun-25 03:33N 42°49' E 010°19'0 0.0
2016-Jun-25 02:17N 42°49' E 010°19'0 0.0
2016-Jun-25 00:27N 42°49' E 010°19'0 0.0
2016-Jun-24 21:26N 42°49' E 010°19'0 0.0
2016-Jun-24 20:18N 42°49' E 010°19'0 0.6
2016-Jun-24 19:33N 42°48' E 010°20'12 8.7
2016-Jun-24 18:10N 42°56' E 010°33'710.9
2016-Jun-24 17:34N 42°53' E 010°25'6 5.8
2016-Jun-24 16:33N 42°49' E 010°19'6 6.1
2016-Jun-24 15:33N 42°53' E 010°26'7 6.8
2016-Jun-24 14:33N 42°56' E 010°34'1312.7
2016-Jun-24 13:33N 42°49' E 010°19'7 6.7
2016-Jun-24 12:33N 42°53' E 010°26'6 2.0
2016-Jun-24 09:33N 42°56' E 010°33'1311.5
2016-Jun-24 08:27N 42°49' E 010°19'0 0.0
2016-Jun-24 07:32N 42°49' E 010°19'0 0.0
2016-Jun-24 01:28N 42°49' E 010°19'0 0.0
2016-Jun-24 00:23N 42°49' E 010°19'0 0.0
2016-Jun-23 23:23N 42°49' E 010°19'0 0.0
2016-Jun-23 19:33N 42°49' E 010°19'1312.9
2016-Jun-23 18:34N 42°56' E 010°34'7 7.4
2016-Jun-23 17:33N 42°53' E 010°25'6 3.9
2016-Jun-23 16:09N 42°49' E 010°19'711.3
2016-Jun-23 15:32N 42°53' E 010°27'6 6.0
2016-Jun-23 14:33N 42°56' E 010°34'13 8.7
2016-Jun-23 13:05N 42°49' E 010°19'712.3
2016-Jun-23 12:34N 42°53' E 010°26'6 4.4
2016-Jun-23 11:17N 42°56' E 010°33'1 0.5
2016-Jun-23 09:34N 42°56' E 010°34'1312.7
2016-Jun-23 08:33N 42°49' E 010°19'0 0.0
2016-Jun-23 07:33N 42°49' E 010°19'12 6.2
2016-Jun-23 05:33N 42°56' E 010°33'13 4.2
2016-Jun-23 02:33N 42°49' E 010°19'0 0.0
2016-Jun-23 00:30N 42°49' E 010°19'0 0.0
2016-Jun-22 23:10N 42°49' E 010°19'0 0.0
2016-Jun-22 22:14N 42°49' E 010°19'0 0.0
2016-Jun-22 21:24N 42°49' E 010°19'0 0.0
2016-Jun-22 20:33N 42°49' E 010°19'0 0.0
2016-Jun-22 19:34N 42°49' E 010°19'6 2.8
2016-Jun-22 17:33N 42°53' E 010°25'6 3.7
2016-Jun-22 16:04N 42°49' E 010°19'612.7
2016-Jun-22 15:33N 42°53' E 010°26'6 6.2
2016-Jun-22 14:34N 42°56' E 010°33'1312.5
2016-Jun-22 13:33N 42°49' E 010°19'7 6.6
2016-Jun-22 12:33N 42°53' E 010°26'6 2.1
2016-Jun-22 09:33N 42°56' E 010°34'1312.7
2016-Jun-22 08:33N 42°49' E 010°19'0 0.1
2016-Jun-22 07:14N 42°49' E 010°19'912.9
2016-Jun-22 06:34N 42°54' E 010°29'4 3.7
2016-Jun-22 05:32N 42°56' E 010°33'1312.7
2016-Jun-22 04:33N 42°49' E 010°19'0 0.1
2016-Jun-22 03:33N 42°49' E 010°19'0 0.0
2016-Jun-22 02:30N 42°49' E 010°19'0 0.0
2016-Jun-22 01:29N 42°49' E 010°19'0 0.0
2016-Jun-22 00:33N 42°49' E 010°19'0 0.0
2016-Jun-21 23:32N 42°49' E 010°19'0 0.0
2016-Jun-21 22:33N 42°49' E 010°19'0 0.0
2016-Jun-21 21:33N 42°49' E 010°19'0 0.0
2016-Jun-21 20:33N 42°49' E 010°19'0 0.0
2016-Jun-21 19:33N 42°49' E 010°19'1312.9
2016-Jun-21 18:34N 42°56' E 010°34'7 7.1
2016-Jun-21 17:34N 42°53' E 010°25'6 5.8
2016-Jun-21 16:33N 42°49' E 010°19'6 6.0
2016-Jun-21 15:33N 42°53' E 010°25'7 6.9
2016-Jun-21 14:34N 42°56' E 010°34'1312.7
2016-Jun-21 13:33N 42°49' E 010°19'7 7.2
2016-Jun-21 12:33N 42°53' E 010°27'5 4.0
2016-Jun-21 11:17N 42°56' E 010°33'0 0.0
2016-Jun-21 10:33N 42°56' E 010°33'1 0.6
2016-Jun-21 09:34N 42°56' E 010°34'1312.7
2016-Jun-21 08:33N 42°49' E 010°19'0 0.1
2016-Jun-21 07:32N 42°49' E 010°19'13 6.4
2016-Jun-21 05:33N 42°56' E 010°33'13 4.2
2016-Jun-21 02:31N 42°49' E 010°19'0 0.0
2016-Jun-21 01:34N 42°49' E 010°19'0 0.0
2016-Jun-21 00:33N 42°49' E 010°19'0 0.0
2016-Jun-20 23:32N 42°49' E 010°19'0 0.0
2016-Jun-20 22:32N 42°49' E 010°19'0 0.0
2016-Jun-20 21:33N 42°49' E 010°19'0 0.0
2016-Jun-20 20:33N 42°49' E 010°19'0 0.0
2016-Jun-20 19:34N 42°49' E 010°19'1312.8
2016-Jun-20 18:33N 42°56' E 010°34'8 7.7
2016-Jun-20 17:33N 42°52' E 010°24'5 5.0
2016-Jun-20 16:31N 42°49' E 010°19'8 8.1
2016-Jun-20 15:33N 42°53' E 010°28'5 5.0
2016-Jun-20 14:33N 42°56' E 010°34'1312.8
2016-Jun-20 13:33N 42°49' E 010°19'7 6.7
2016-Jun-20 12:33N 42°53' E 010°26'6 2.0
2016-Jun-20 09:33N 42°56' E 010°34'1312.8
2016-Jun-20 08:33N 42°49' E 010°19'0 0.1
2016-Jun-20 07:21N 42°49' E 010°19'11 5.5
2016-Jun-20 05:20N 42°54' E 010°32'1114.0
2016-Jun-20 04:33N 42°49' E 010°19'0 0.1
2016-Jun-20 03:33N 42°49' E 010°19'6 0.5
2016-Jun-19 15:32N 42°53' E 010°25'7 7.4
2016-Jun-19 14:33N 42°56' E 010°34'13 0.8
2016-Jun-18 21:33N 42°49' E 010°19'  
Track history (hours):
 
Tides and Currents Weather Stations Pressure Air Temp Water Temp Dewpoint Dewpoint Depression Visibility Wind Speed Wind Dir Waves Ship Positions

Moby Baby

Last reported at 2016-Jun-28 20:11 UTC. Time now 2016-Jun-28 22:30 UTC.
Position N 42°49' E 010°19'.

; draft 4.5 m.

Type: Ship. MMSI: 247049900.

Date/timePositionNaut miles runAvg speedWind from/ knotsBaromVisibWave heightAir tempDewpointWater temp
2016-Jun-28 20:11N 42°49' E 010°19'0 0.0
2016-Jun-28 19:32N 42°49' E 010°19'1312.8
2016-Jun-28 18:33N 42°56' E 010°33'7 7.1
2016-Jun-28 17:33N 42°53' E 010°25'6 5.7
2016-Jun-28 16:33N 42°49' E 010°19'7 7.1
2016-Jun-28 15:33N 42°53' E 010°27'6 5.6
2016-Jun-28 14:33N 42°56' E 010°33'1312.4
2016-Jun-28 13:33N 42°49' E 010°19'7 6.6
2016-Jun-28 12:33N 42°53' E 010°26'6 2.0
2016-Jun-28 09:33N 42°56' E 010°33'12 5.3
2016-Jun-28 07:12N 42°49' E 010°20'0 0.0
2016-Jun-27 16:32N 42°49' E 010°19'6 6.4
2016-Jun-27 15:33N 42°53' E 010°26'4 3.2
2016-Jun-27 14:19N 42°54' E 010°31'4 2.1
2016-Jun-27 12:33N 42°53' E 010°26'7 0.4
2016-Jun-26 21:20N 42°49' E 010°19'0 0.0
2016-Jun-26 20:33N 42°49' E 010°19'0 0.1
2016-Jun-26 19:33N 42°49' E 010°19'13 8.8
2016-Jun-26 18:08N 42°56' E 010°33'712.3
2016-Jun-26 17:33N 42°53' E 010°25'6 5.6
2016-Jun-26 16:33N 42°49' E 010°19'6 6.3
2016-Jun-26 15:33N 42°53' E 010°26'6 6.4
2016-Jun-26 14:34N 42°56' E 010°33'1212.5
2016-Jun-26 13:33N 42°49' E 010°19'8 7.5
2016-Jun-26 12:34N 42°53' E 010°28'1 0.4
2016-Jun-26 09:13N 42°53' E 010°29'913.3
2016-Jun-26 08:33N 42°49' E 010°19'0 0.1
2016-Jun-26 07:31N 42°49' E 010°19'9 9.0
2016-Jun-26 06:33N 42°54' E 010°29'4 3.9
2016-Jun-26 05:32N 42°56' E 010°33'13 1.8
2016-Jun-25 22:32N 42°49' E 010°19'0 0.0
2016-Jun-25 21:32N 42°49' E 010°19'0 0.0
2016-Jun-25 19:33N 42°49' E 010°19'11 5.2
2016-Jun-25 17:25N 42°54' E 010°33'11 5.5
2016-Jun-25 15:27N 42°48' E 010°20'1213.5
2016-Jun-25 14:33N 42°56' E 010°33'4 3.8
2016-Jun-25 13:33N 42°53' E 010°29'9 8.2
2016-Jun-25 12:28N 42°49' E 010°19'1213.0
2016-Jun-25 11:33N 42°55' E 010°33'1 1.1
2016-Jun-25 10:34N 42°56' E 010°33'1312.7
2016-Jun-25 09:34N 42°49' E 010°19'0 0.1
2016-Jun-25 08:33N 42°49' E 010°19'0 0.2
2016-Jun-25 07:16N 42°49' E 010°20'1013.8
2016-Jun-25 06:34N 42°54' E 010°31'3 3.0
2016-Jun-25 05:33N 42°56' E 010°34'1312.8
2016-Jun-25 04:34N 42°49' E 010°19'0 0.1
2016-Jun-25 03:33N 42°49' E 010°19'0 0.0
2016-Jun-25 02:17N 42°49' E 010°19'0 0.0
2016-Jun-25 00:27N 42°49' E 010°19'0 0.0
2016-Jun-24 21:26N 42°49' E 010°19'0 0.0
2016-Jun-24 20:18N 42°49' E 010°19'0 0.6
2016-Jun-24 19:33N 42°48' E 010°20'12 8.7
2016-Jun-24 18:10N 42°56' E 010°33'710.9
2016-Jun-24 17:34N 42°53' E 010°25'6 5.8
2016-Jun-24 16:33N 42°49' E 010°19'6 6.1
2016-Jun-24 15:33N 42°53' E 010°26'7 6.8
2016-Jun-24 14:33N 42°56' E 010°34'1312.7
2016-Jun-24 13:33N 42°49' E 010°19'7 6.7
2016-Jun-24 12:33N 42°53' E 010°26'6 2.0
2016-Jun-24 09:33N 42°56' E 010°33'1311.5
2016-Jun-24 08:27N 42°49' E 010°19'0 0.0
2016-Jun-24 07:32N 42°49' E 010°19'0 0.0
2016-Jun-24 01:28N 42°49' E 010°19'0 0.0
2016-Jun-24 00:23N 42°49' E 010°19'0 0.0
2016-Jun-23 23:23N 42°49' E 010°19'0 0.0
2016-Jun-23 19:33N 42°49' E 010°19'1312.9
2016-Jun-23 18:34N 42°56' E 010°34'7 7.4
2016-Jun-23 17:33N 42°53' E 010°25'6 3.9
2016-Jun-23 16:09N 42°49' E 010°19'711.3
2016-Jun-23 15:32N 42°53' E 010°27'6 6.0
2016-Jun-23 14:33N 42°56' E 010°34'13 8.7
2016-Jun-23 13:05N 42°49' E 010°19'712.3
2016-Jun-23 12:34N 42°53' E 010°26'6 4.4
2016-Jun-23 11:17N 42°56' E 010°33'1 0.5
2016-Jun-23 09:34N 42°56' E 010°34'1312.7
2016-Jun-23 08:33N 42°49' E 010°19'0 0.0
2016-Jun-23 07:33N 42°49' E 010°19'12 6.2
2016-Jun-23 05:33N 42°56' E 010°33'13 4.2
2016-Jun-23 02:33N 42°49' E 010°19'0 0.0
2016-Jun-23 00:30N 42°49' E 010°19'0 0.0
2016-Jun-22 23:10N 42°49' E 010°19'0 0.0
2016-Jun-22 22:14N 42°49' E 010°19'0 0.0
2016-Jun-22 21:24N 42°49' E 010°19'0 0.0
2016-Jun-22 20:33N 42°49' E 010°19'0 0.0
2016-Jun-22 19:34N 42°49' E 010°19'6 2.8
2016-Jun-22 17:33N 42°53' E 010°25'6 3.7
2016-Jun-22 16:04N 42°49' E 010°19'612.7
2016-Jun-22 15:33N 42°53' E 010°26'6 6.2
2016-Jun-22 14:34N 42°56' E 010°33'1312.5
2016-Jun-22 13:33N 42°49' E 010°19'7 6.6
2016-Jun-22 12:33N 42°53' E 010°26'6 2.1
2016-Jun-22 09:33N 42°56' E 010°34'1312.7
2016-Jun-22 08:33N 42°49' E 010°19'0 0.1
2016-Jun-22 07:14N 42°49' E 010°19'912.9
2016-Jun-22 06:34N 42°54' E 010°29'4 3.7
2016-Jun-22 05:32N 42°56' E 010°33'1312.7
2016-Jun-22 04:33N 42°49' E 010°19'0 0.1
2016-Jun-22 03:33N 42°49' E 010°19'0 0.0
2016-Jun-22 02:30N 42°49' E 010°19'0 0.0
2016-Jun-22 01:29N 42°49' E 010°19'0 0.0
2016-Jun-22 00:33N 42°49' E 010°19'0 0.0
2016-Jun-21 23:32N 42°49' E 010°19'0 0.0
2016-Jun-21 22:33N 42°49' E 010°19'0 0.0
2016-Jun-21 21:33N 42°49' E 010°19'0 0.0
2016-Jun-21 20:33N 42°49' E 010°19'0 0.0
2016-Jun-21 19:33N 42°49' E 010°19'1312.9
2016-Jun-21 18:34N 42°56' E 010°34'7 7.1
2016-Jun-21 17:34N 42°53' E 010°25'6 5.8
2016-Jun-21 16:33N 42°49' E 010°19'6 6.0
2016-Jun-21 15:33N 42°53' E 010°25'7 6.9
2016-Jun-21 14:34N 42°56' E 010°34'1312.7
2016-Jun-21 13:33N 42°49' E 010°19'7 7.2
2016-Jun-21 12:33N 42°53' E 010°27'5 4.0
2016-Jun-21 11:17N 42°56' E 010°33'0 0.0
2016-Jun-21 10:33N 42°56' E 010°33'1 0.6
2016-Jun-21 09:34N 42°56' E 010°34'1312.7
2016-Jun-21 08:33N 42°49' E 010°19'0 0.1
2016-Jun-21 07:32N 42°49' E 010°19'13 6.4
2016-Jun-21 05:33N 42°56' E 010°33'13 4.2
2016-Jun-21 02:31N 42°49' E 010°19'0 0.0
2016-Jun-21 01:34N 42°49' E 010°19'0 0.0
2016-Jun-21 00:33N 42°49' E 010°19'0 0.0
2016-Jun-20 23:32N 42°49' E 010°19'0 0.0
2016-Jun-20 22:32N 42°49' E 010°19'0 0.0
2016-Jun-20 21:33N 42°49' E 010°19'0 0.0
2016-Jun-20 20:33N 42°49' E 010°19'0 0.0
2016-Jun-20 19:34N 42°49' E 010°19'1312.8
2016-Jun-20 18:33N 42°56' E 010°34'8 7.7
2016-Jun-20 17:33N 42°52' E 010°24'5 5.0
2016-Jun-20 16:31N 42°49' E 010°19'8 8.1
2016-Jun-20 15:33N 42°53' E 010°28'5 5.0
2016-Jun-20 14:33N 42°56' E 010°34'1312.8
2016-Jun-20 13:33N 42°49' E 010°19'7 6.7
2016-Jun-20 12:33N 42°53' E 010°26'6 2.0
2016-Jun-20 09:33N 42°56' E 010°34'1312.8
2016-Jun-20 08:33N 42°49' E 010°19'0 0.1
2016-Jun-20 07:21N 42°49' E 010°19'11 5.5
2016-Jun-20 05:20N 42°54' E 010°32'1114.0
2016-Jun-20 04:33N 42°49' E 010°19'0 0.1
2016-Jun-20 03:33N 42°49' E 010°19'6 0.5
2016-Jun-19 15:32N 42°53' E 010°25'7 7.4
2016-Jun-19 14:33N 42°56' E 010°34'13 0.8
2016-Jun-18 21:33N 42°49' E 010°19'  

Dump ship's entire track history